sensor_id;sensor_type;location;lat;lon;timestamp;noise_LAeq;noise_LA_min;noise_LA_max;noise_LA01;noise_LA95
46746;Laerm;32493;50.514;9.678;2022-07-11T00:00:16;31.25;30.03;32.48;;
46746;Laerm;32493;50.514;9.678;2022-07-11T00:02:21;31.29;29.98;32.58;;
46746;Laerm;32493;50.514;9.678;2022-07-11T00:04:27;31.30;30.13;32.41;;
46746;Laerm;32493;50.514;9.678;2022-07-11T00:06:35;31.31;30.17;32.49;;
46746;Laerm;32493;50.514;9.678;2022-07-11T00:08:41;31.31;30.20;32.52;;
46746;Laerm;32493;50.514;9.678;2022-07-11T00:10:46;31.34;30.15;32.48;;
46746;Laerm;32493;50.514;9.678;2022-07-11T00:12:52;31.31;30.10;32.83;;
46746;Laerm;32493;50.514;9.678;2022-07-11T00:14:57;31.31;30.13;32.47;;
46746;Laerm;32493;50.514;9.678;2022-07-11T00:17:03;31.31;30.05;32.51;;
46746;Laerm;32493;50.514;9.678;2022-07-11T00:19:09;31.31;30.09;32.45;;
46746;Laerm;32493;50.514;9.678;2022-07-11T00:21:14;31.27;30.11;32.46;;
46746;Laerm;32493;50.514;9.678;2022-07-11T00:23:23;31.29;30.18;32.57;;
46746;Laerm;32493;50.514;9.678;2022-07-11T00:25:28;31.31;30.06;32.37;;
46746;Laerm;32493;50.514;9.678;2022-07-11T00:27:33;31.30;30.00;32.35;;
46746;Laerm;32493;50.514;9.678;2022-07-11T00:29:38;31.30;30.22;32.45;;
46746;Laerm;32493;50.514;9.678;2022-07-11T00:31:44;31.30;29.98;32.46;;
46746;Laerm;32493;50.514;9.678;2022-07-11T00:33:49;31.30;30.17;32.36;;
46746;Laerm;32493;50.514;9.678;2022-07-11T00:35:55;31.30;30.30;32.45;;
46746;Laerm;32493;50.514;9.678;2022-07-11T00:38:00;31.31;30.12;32.53;;
46746;Laerm;32493;50.514;9.678;2022-07-11T00:40:09;31.31;30.00;32.47;;
46746;Laerm;32493;50.514;9.678;2022-07-11T00:42:17;31.28;30.11;32.36;;
46746;Laerm;32493;50.514;9.678;2022-07-11T00:44:22;31.29;29.83;32.27;;
46746;Laerm;32493;50.514;9.678;2022-07-11T00:46:29;31.28;30.19;32.38;;
46746;Laerm;32493;50.514;9.678;2022-07-11T00:48:36;31.27;30.05;32.42;;
46746;Laerm;32493;50.514;9.678;2022-07-11T00:50:41;31.31;29.88;32.37;;
46746;Laerm;32493;50.514;9.678;2022-07-11T00:52:50;31.29;30.10;32.30;;
46746;Laerm;32493;50.514;9.678;2022-07-11T00:54:56;31.28;30.20;32.47;;
46746;Laerm;32493;50.514;9.678;2022-07-11T00:57:05;31.29;30.04;32.44;;
46746;Laerm;32493;50.514;9.678;2022-07-11T00:59:10;31.31;30.09;32.42;;
46746;Laerm;32493;50.514;9.678;2022-07-11T01:01:17;31.31;30.20;32.29;;
46746;Laerm;32493;50.514;9.678;2022-07-11T01:03:23;31.33;30.10;32.39;;
46746;Laerm;32493;50.514;9.678;2022-07-11T01:05:28;31.32;30.12;32.62;;
46746;Laerm;32493;50.514;9.678;2022-07-11T01:07:33;31.32;30.03;32.48;;
46746;Laerm;32493;50.514;9.678;2022-07-11T01:09:39;31.32;30.20;32.56;;
46746;Laerm;32493;50.514;9.678;2022-07-11T01:11:44;31.29;30.16;32.28;;
46746;Laerm;32493;50.514;9.678;2022-07-11T01:13:52;31.31;30.25;32.39;;
46746;Laerm;32493;50.514;9.678;2022-07-11T01:16:09;31.34;30.19;32.35;;
46746;Laerm;32493;50.514;9.678;2022-07-11T01:18:15;31.33;29.88;32.50;;
46746;Laerm;32493;50.514;9.678;2022-07-11T01:20:21;31.35;30.08;32.44;;
46746;Laerm;32493;50.514;9.678;2022-07-11T01:22:28;31.33;30.13;32.44;;
46746;Laerm;32493;50.514;9.678;2022-07-11T01:24:39;31.33;30.05;32.43;;
46746;Laerm;32493;50.514;9.678;2022-07-11T01:26:45;31.33;30.21;32.32;;
46746;Laerm;32493;50.514;9.678;2022-07-11T01:28:52;31.31;30.18;32.40;;
46746;Laerm;32493;50.514;9.678;2022-07-11T01:30:59;31.32;30.26;32.39;;
46746;Laerm;32493;50.514;9.678;2022-07-11T01:33:04;31.30;29.92;32.39;;
46746;Laerm;32493;50.514;9.678;2022-07-11T01:35:10;31.27;30.05;32.64;;
46746;Laerm;32493;50.514;9.678;2022-07-11T01:37:15;31.25;30.12;32.36;;
46746;Laerm;32493;50.514;9.678;2022-07-11T01:39:20;31.29;30.10;32.36;;
46746;Laerm;32493;50.514;9.678;2022-07-11T01:41:30;31.29;30.11;32.31;;
46746;Laerm;32493;50.514;9.678;2022-07-11T01:43:36;31.30;29.71;32.31;;
46746;Laerm;32493;50.514;9.678;2022-07-11T01:45:41;31.32;30.12;32.34;;
46746;Laerm;32493;50.514;9.678;2022-07-11T01:47:47;31.35;30.12;32.40;;
46746;Laerm;32493;50.514;9.678;2022-07-11T01:49:52;31.37;30.18;32.42;;
46746;Laerm;32493;50.514;9.678;2022-07-11T01:51:58;31.32;29.86;32.30;;
46746;Laerm;32493;50.514;9.678;2022-07-11T01:54:03;31.30;30.18;32.42;;
46746;Laerm;32493;50.514;9.678;2022-07-11T01:56:08;31.28;30.07;32.35;;
46746;Laerm;32493;50.514;9.678;2022-07-11T01:58:29;31.24;30.04;32.47;;
46746;Laerm;32493;50.514;9.678;2022-07-11T02:00:35;31.22;30.03;32.25;;
46746;Laerm;32493;50.514;9.678;2022-07-11T02:02:40;31.20;30.06;32.30;;
46746;Laerm;32493;50.514;9.678;2022-07-11T02:04:46;31.21;29.98;32.30;;
46746;Laerm;32493;50.514;9.678;2022-07-11T02:06:52;31.18;30.11;32.17;;
46746;Laerm;32493;50.514;9.678;2022-07-11T02:08:57;31.22;29.94;32.28;;
46746;Laerm;32493;50.514;9.678;2022-07-11T02:11:03;31.21;29.72;32.27;;
46746;Laerm;32493;50.514;9.678;2022-07-11T02:13:09;31.19;30.04;32.18;;
46746;Laerm;32493;50.514;9.678;2022-07-11T02:15:17;31.17;29.98;32.47;;
46746;Laerm;32493;50.514;9.678;2022-07-11T02:17:23;31.16;29.88;32.42;;
46746;Laerm;32493;50.514;9.678;2022-07-11T02:19:28;31.15;29.95;32.27;;
46746;Laerm;32493;50.514;9.678;2022-07-11T02:21:33;31.14;29.97;32.17;;
46746;Laerm;32493;50.514;9.678;2022-07-11T02:23:39;31.11;29.60;32.24;;
46746;Laerm;32493;50.514;9.678;2022-07-11T02:25:45;31.11;30.03;32.03;;
46746;Laerm;32493;50.514;9.678;2022-07-11T02:27:51;31.12;29.95;32.19;;
46746;Laerm;32493;50.514;9.678;2022-07-11T02:29:56;31.12;29.85;32.17;;
46746;Laerm;32493;50.514;9.678;2022-07-11T02:32:05;31.10;30.05;32.27;;
46746;Laerm;32493;50.514;9.678;2022-07-11T02:34:11;31.09;29.96;32.25;;
46746;Laerm;32493;50.514;9.678;2022-07-11T02:36:16;31.06;29.82;32.15;;
46746;Laerm;32493;50.514;9.678;2022-07-11T02:38:21;31.07;29.86;32.06;;
46746;Laerm;32493;50.514;9.678;2022-07-11T02:40:27;31.09;29.99;32.40;;
46746;Laerm;32493;50.514;9.678;2022-07-11T02:42:32;31.08;30.06;32.13;;
46746;Laerm;32493;50.514;9.678;2022-07-11T02:44:38;31.11;29.90;32.25;;
46746;Laerm;32493;50.514;9.678;2022-07-11T02:46:43;31.11;29.77;32.35;;
46746;Laerm;32493;50.514;9.678;2022-07-11T02:48:51;31.06;29.74;32.14;;
46746;Laerm;32493;50.514;9.678;2022-07-11T02:50:56;31.09;29.79;32.20;;
46746;Laerm;32493;50.514;9.678;2022-07-11T02:53:01;31.12;29.82;32.35;;
46746;Laerm;32493;50.514;9.678;2022-07-11T02:55:10;31.11;29.96;32.10;;
46746;Laerm;32493;50.514;9.678;2022-07-11T02:57:17;31.16;29.88;32.25;;
46746;Laerm;32493;50.514;9.678;2022-07-11T02:59:23;31.05;29.95;32.36;;
46746;Laerm;32493;50.514;9.678;2022-07-11T03:01:28;31.03;29.78;32.21;;
46746;Laerm;32493;50.514;9.678;2022-07-11T03:03:34;31.00;29.82;32.17;;
46746;Laerm;32493;50.514;9.678;2022-07-11T03:05:43;31.00;29.82;32.05;;
46746;Laerm;32493;50.514;9.678;2022-07-11T03:07:49;31.00;29.80;32.03;;
46746;Laerm;32493;50.514;9.678;2022-07-11T03:09:55;30.98;29.66;32.10;;
46746;Laerm;32493;50.514;9.678;2022-07-11T03:12:00;31.01;29.86;32.15;;
46746;Laerm;32493;50.514;9.678;2022-07-11T03:14:06;31.05;29.72;32.18;;
46746;Laerm;32493;50.514;9.678;2022-07-11T03:16:11;31.07;30.01;32.28;;
46746;Laerm;32493;50.514;9.678;2022-07-11T03:18:17;31.05;29.86;32.04;;
46746;Laerm;32493;50.514;9.678;2022-07-11T03:20:22;31.03;29.96;32.18;;
46746;Laerm;32493;50.514;9.678;2022-07-11T03:22:30;31.01;29.94;32.09;;
46746;Laerm;32493;50.514;9.678;2022-07-11T03:24:36;30.99;29.93;32.02;;
46746;Laerm;32493;50.514;9.678;2022-07-11T03:26:43;30.99;29.81;32.05;;
46746;Laerm;32493;50.514;9.678;2022-07-11T03:28:49;31.06;29.93;32.06;;
46746;Laerm;32493;50.514;9.678;2022-07-11T03:30:55;31.08;30.08;32.23;;
46746;Laerm;32493;50.514;9.678;2022-07-11T03:33:00;31.02;29.85;31.99;;
46746;Laerm;32493;50.514;9.678;2022-07-11T03:35:08;31.01;29.88;32.19;;
46746;Laerm;32493;50.514;9.678;2022-07-11T03:37:26;31.00;29.62;32.03;;
46746;Laerm;32493;50.514;9.678;2022-07-11T03:39:34;31.01;29.81;32.03;;
46746;Laerm;32493;50.514;9.678;2022-07-11T03:41:40;31.01;29.97;32.11;;
46746;Laerm;32493;50.514;9.678;2022-07-11T03:43:45;30.99;29.85;32.44;;
46746;Laerm;32493;50.514;9.678;2022-07-11T03:45:51;30.99;29.79;32.08;;
46746;Laerm;32493;50.514;9.678;2022-07-11T03:47:59;30.98;29.90;32.10;;
46746;Laerm;32493;50.514;9.678;2022-07-11T03:50:08;31.00;29.58;32.10;;
46746;Laerm;32493;50.514;9.678;2022-07-11T03:52:16;30.96;29.60;32.20;;
46746;Laerm;32493;50.514;9.678;2022-07-11T03:54:28;30.92;29.75;32.02;;
46746;Laerm;32493;50.514;9.678;2022-07-11T03:56:36;30.96;29.83;32.29;;
46746;Laerm;32493;50.514;9.678;2022-07-11T03:58:44;30.98;29.68;32.05;;
46746;Laerm;32493;50.514;9.678;2022-07-11T04:00:54;30.94;29.75;32.08;;
46746;Laerm;32493;50.514;9.678;2022-07-11T04:03:00;30.94;29.84;32.29;;
46746;Laerm;32493;50.514;9.678;2022-07-11T04:05:07;30.94;29.71;32.12;;
46746;Laerm;32493;50.514;9.678;2022-07-11T04:07:12;30.94;29.76;32.07;;
46746;Laerm;32493;50.514;9.678;2022-07-11T04:09:18;30.96;29.74;31.92;;
46746;Laerm;32493;50.514;9.678;2022-07-11T04:11:24;30.98;29.89;32.03;;
46746;Laerm;32493;50.514;9.678;2022-07-11T04:13:32;31.03;29.98;31.98;;
46746;Laerm;32493;50.514;9.678;2022-07-11T04:15:41;31.02;29.92;32.13;;
46746;Laerm;32493;50.514;9.678;2022-07-11T04:17:47;31.05;29.91;32.10;;
46746;Laerm;32493;50.514;9.678;2022-07-11T04:19:53;31.05;29.83;32.13;;
46746;Laerm;32493;50.514;9.678;2022-07-11T04:21:58;31.03;29.91;32.11;;
46746;Laerm;32493;50.514;9.678;2022-07-11T04:24:04;31.02;29.90;32.22;;
46746;Laerm;32493;50.514;9.678;2022-07-11T04:26:09;31.06;29.94;32.16;;
46746;Laerm;32493;50.514;9.678;2022-07-11T04:28:24;31.10;30.02;32.20;;
46746;Laerm;32493;50.514;9.678;2022-07-11T04:30:33;31.09;29.79;32.15;;
46746;Laerm;32493;50.514;9.678;2022-07-11T04:32:44;31.11;29.79;32.21;;
46746;Laerm;32493;50.514;9.678;2022-07-11T04:34:51;31.14;30.00;32.16;;
46746;Laerm;32493;50.514;9.678;2022-07-11T04:36:56;31.18;29.92;32.33;;
46746;Laerm;32493;50.514;9.678;2022-07-11T04:39:02;31.19;30.02;32.28;;
46746;Laerm;32493;50.514;9.678;2022-07-11T04:41:07;31.21;30.17;32.26;;
46746;Laerm;32493;50.514;9.678;2022-07-11T04:43:12;31.24;29.76;32.35;;
46746;Laerm;32493;50.514;9.678;2022-07-11T04:45:18;31.25;30.15;32.56;;
46746;Laerm;32493;50.514;9.678;2022-07-11T04:47:26;31.25;29.91;32.47;;
46746;Laerm;32493;50.514;9.678;2022-07-11T04:49:32;31.26;29.84;32.29;;
46746;Laerm;32493;50.514;9.678;2022-07-11T04:51:38;31.22;29.96;32.21;;
46746;Laerm;32493;50.514;9.678;2022-07-11T04:53:43;31.16;30.08;32.30;;
46746;Laerm;32493;50.514;9.678;2022-07-11T04:55:49;31.24;30.00;32.26;;
46746;Laerm;32493;50.514;9.678;2022-07-11T04:57:54;31.23;30.13;32.35;;
46746;Laerm;32493;50.514;9.678;2022-07-11T05:00:00;31.23;30.13;32.47;;
46746;Laerm;32493;50.514;9.678;2022-07-11T05:02:06;31.25;30.15;32.36;;
46746;Laerm;32493;50.514;9.678;2022-07-11T05:04:14;31.22;30.22;32.25;;
46746;Laerm;32493;50.514;9.678;2022-07-11T05:06:19;31.23;30.02;32.37;;
46746;Laerm;32493;50.514;9.678;2022-07-11T05:08:25;31.25;30.14;32.43;;
46746;Laerm;32493;50.514;9.678;2022-07-11T05:10:33;31.24;30.06;32.41;;
46746;Laerm;32493;50.514;9.678;2022-07-11T05:12:39;31.25;30.11;32.39;;
46746;Laerm;32493;50.514;9.678;2022-07-11T05:14:44;31.18;29.91;32.33;;
46746;Laerm;32493;50.514;9.678;2022-07-11T05:16:51;31.26;29.90;32.56;;
46746;Laerm;32493;50.514;9.678;2022-07-11T05:18:56;31.25;30.01;32.22;;
46746;Laerm;32493;50.514;9.678;2022-07-11T05:21:05;31.21;29.78;32.57;;
46746;Laerm;32493;50.514;9.678;2022-07-11T05:23:10;31.22;30.17;32.49;;
46746;Laerm;32493;50.514;9.678;2022-07-11T05:25:15;31.18;29.86;32.15;;
46746;Laerm;32493;50.514;9.678;2022-07-11T05:27:21;31.20;29.97;32.37;;
46746;Laerm;32493;50.514;9.678;2022-07-11T05:29:26;31.20;29.88;32.35;;
46746;Laerm;32493;50.514;9.678;2022-07-11T05:31:32;31.24;30.06;32.39;;
46746;Laerm;32493;50.514;9.678;2022-07-11T05:33:37;31.27;30.06;32.36;;
46746;Laerm;32493;50.514;9.678;2022-07-11T05:35:43;31.35;29.96;32.48;;
46746;Laerm;32493;50.514;9.678;2022-07-11T05:38:03;31.34;30.15;32.43;;
46746;Laerm;32493;50.514;9.678;2022-07-11T05:40:12;31.38;30.25;32.43;;
46746;Laerm;32493;50.514;9.678;2022-07-11T05:42:18;31.42;30.02;32.45;;
46746;Laerm;32493;50.514;9.678;2022-07-11T05:44:23;31.44;30.20;32.54;;
46746;Laerm;32493;50.514;9.678;2022-07-11T05:46:28;31.49;30.17;32.67;;
46746;Laerm;32493;50.514;9.678;2022-07-11T05:48:33;31.54;30.39;32.66;;
46746;Laerm;32493;50.514;9.678;2022-07-11T05:50:39;31.57;30.43;32.66;;
46746;Laerm;32493;50.514;9.678;2022-07-11T05:52:44;31.50;30.41;32.49;;
46746;Laerm;32493;50.514;9.678;2022-07-11T05:54:52;31.49;30.40;32.58;;
46746;Laerm;32493;50.514;9.678;2022-07-11T05:56:58;31.46;30.30;32.56;;
46746;Laerm;32493;50.514;9.678;2022-07-11T05:59:04;31.45;30.27;32.59;;
46746;Laerm;32493;50.514;9.678;2022-07-11T06:01:09;31.46;30.27;32.55;;
46746;Laerm;32493;50.514;9.678;2022-07-11T06:03:14;31.43;30.28;32.61;;
46746;Laerm;32493;50.514;9.678;2022-07-11T06:05:20;31.45;30.03;32.55;;
46746;Laerm;32493;50.514;9.678;2022-07-11T06:07:25;31.40;30.40;32.45;;
46746;Laerm;32493;50.514;9.678;2022-07-11T06:09:43;31.37;30.29;32.44;;
46746;Laerm;32493;50.514;9.678;2022-07-11T06:11:51;31.38;30.23;32.36;;
46746;Laerm;32493;50.514;9.678;2022-07-11T06:13:57;31.40;30.27;32.44;;
46746;Laerm;32493;50.514;9.678;2022-07-11T06:16:03;31.36;30.17;32.40;;
46746;Laerm;32493;50.514;9.678;2022-07-11T06:18:09;31.38;30.13;32.57;;
46746;Laerm;32493;50.514;9.678;2022-07-11T06:20:14;31.40;30.12;32.46;;
46746;Laerm;32493;50.514;9.678;2022-07-11T06:22:22;31.40;30.11;32.44;;
46746;Laerm;32493;50.514;9.678;2022-07-11T06:24:27;31.49;30.33;32.62;;
46746;Laerm;32493;50.514;9.678;2022-07-11T06:26:32;31.46;30.21;32.79;;
46746;Laerm;32493;50.514;9.678;2022-07-11T06:28:40;31.43;30.12;32.51;;
46746;Laerm;32493;50.514;9.678;2022-07-11T06:30:47;31.41;30.02;32.48;;
46746;Laerm;32493;50.514;9.678;2022-07-11T06:32:53;31.43;30.15;32.54;;
46746;Laerm;32493;50.514;9.678;2022-07-11T06:34:58;31.42;30.21;32.35;;
46746;Laerm;32493;50.514;9.678;2022-07-11T06:37:04;31.56;30.35;32.72;;
46746;Laerm;32493;50.514;9.678;2022-07-11T06:39:10;31.72;30.41;33.11;;
46746;Laerm;32493;50.514;9.678;2022-07-11T06:41:16;31.82;30.54;33.21;;
46746;Laerm;32493;50.514;9.678;2022-07-11T06:43:22;31.88;30.34;33.32;;
46746;Laerm;32493;50.514;9.678;2022-07-11T06:45:30;31.94;30.65;33.44;;
46746;Laerm;32493;50.514;9.678;2022-07-11T06:47:40;32.03;30.84;33.15;;
46746;Laerm;32493;50.514;9.678;2022-07-11T06:49:50;32.08;30.80;33.24;;
46746;Laerm;32493;50.514;9.678;2022-07-11T06:52:03;32.13;30.82;33.50;;
46746;Laerm;32493;50.514;9.678;2022-07-11T06:54:08;32.18;30.86;33.33;;
46746;Laerm;32493;50.514;9.678;2022-07-11T06:56:14;32.08;30.94;33.24;;
46746;Laerm;32493;50.514;9.678;2022-07-11T06:58:19;32.14;30.90;33.16;;
46746;Laerm;32493;50.514;9.678;2022-07-11T07:00:39;32.24;31.04;33.43;;
46746;Laerm;32493;50.514;9.678;2022-07-11T07:02:45;32.32;30.96;33.78;;
46746;Laerm;32493;50.514;9.678;2022-07-11T07:04:51;32.23;31.11;33.21;;
46746;Laerm;32493;50.514;9.678;2022-07-11T07:07:00;32.77;31.19;43.71;;
46746;Laerm;32493;50.514;9.678;2022-07-11T07:09:05;33.06;31.39;40.38;;
46746;Laerm;32493;50.514;9.678;2022-07-11T07:11:10;33.39;31.26;41.19;;
46746;Laerm;32493;50.514;9.678;2022-07-11T07:13:16;32.71;31.39;35.35;;
46746;Laerm;32493;50.514;9.678;2022-07-11T07:15:22;33.27;31.48;37.67;;
46746;Laerm;32493;50.514;9.678;2022-07-11T07:17:30;33.11;31.57;35.96;;
46746;Laerm;32493;50.514;9.678;2022-07-11T07:19:36;33.87;31.52;41.69;;
46746;Laerm;32493;50.514;9.678;2022-07-11T07:21:42;32.81;31.54;34.48;;
46746;Laerm;32493;50.514;9.678;2022-07-11T07:23:47;32.84;31.51;34.76;;
46746;Laerm;32493;50.514;9.678;2022-07-11T07:25:52;32.78;31.52;41.17;;
46746;Laerm;32493;50.514;9.678;2022-07-11T07:27:58;32.89;31.51;34.54;;
46746;Laerm;32493;50.514;9.678;2022-07-11T07:30:05;33.05;31.85;34.33;;
46746;Laerm;32493;50.514;9.678;2022-07-11T07:32:14;33.08;31.81;34.99;;
46746;Laerm;32493;50.514;9.678;2022-07-11T07:34:22;33.11;31.73;35.85;;
46746;Laerm;32493;50.514;9.678;2022-07-11T07:36:27;33.24;31.70;37.19;;
46746;Laerm;32493;50.514;9.678;2022-07-11T07:38:33;33.38;31.99;35.03;;
46746;Laerm;32493;50.514;9.678;2022-07-11T07:40:38;33.33;31.95;40.77;;
46746;Laerm;32493;50.514;9.678;2022-07-11T07:42:46;33.84;32.38;38.74;;
46746;Laerm;32493;50.514;9.678;2022-07-11T07:44:52;33.74;32.05;37.98;;
46746;Laerm;32493;50.514;9.678;2022-07-11T07:46:57;33.44;32.12;36.33;;
46746;Laerm;32493;50.514;9.678;2022-07-11T07:49:02;33.42;31.89;35.80;;
46746;Laerm;32493;50.514;9.678;2022-07-11T07:51:11;33.76;31.90;41.50;;
46746;Laerm;32493;50.514;9.678;2022-07-11T07:53:16;33.32;31.66;35.70;;
46746;Laerm;32493;50.514;9.678;2022-07-11T07:55:22;33.45;31.63;35.46;;
46746;Laerm;32493;50.514;9.678;2022-07-11T07:57:28;33.43;32.21;34.65;;
46746;Laerm;32493;50.514;9.678;2022-07-11T07:59:33;33.42;32.20;34.99;;
46746;Laerm;32493;50.514;9.678;2022-07-11T08:01:39;33.14;31.77;34.53;;
46746;Laerm;32493;50.514;9.678;2022-07-11T08:03:43;32.95;31.66;34.09;;
46746;Laerm;32493;50.514;9.678;2022-07-11T08:05:49;32.95;31.65;34.09;;
46746;Laerm;32493;50.514;9.678;2022-07-11T08:07:57;33.06;31.69;34.22;;
46746;Laerm;32493;50.514;9.678;2022-07-11T08:10:04;33.31;32.14;34.80;;
46746;Laerm;32493;50.514;9.678;2022-07-11T08:12:09;33.33;32.00;35.50;;
46746;Laerm;32493;50.514;9.678;2022-07-11T08:14:15;32.90;31.30;34.47;;
46746;Laerm;32493;50.514;9.678;2022-07-11T08:16:20;32.45;30.91;34.01;;
46746;Laerm;32493;50.514;9.678;2022-07-11T08:18:26;31.96;30.10;33.88;;
46746;Laerm;32493;50.514;9.678;2022-07-11T08:20:32;31.90;30.52;33.67;;
46746;Laerm;32493;50.514;9.678;2022-07-11T08:22:37;31.86;30.44;33.55;;
46746;Laerm;32493;50.514;9.678;2022-07-11T08:24:47;31.49;29.42;33.44;;
46746;Laerm;32493;50.514;9.678;2022-07-11T08:26:52;31.27;29.60;32.77;;
46746;Laerm;32493;50.514;9.678;2022-07-11T08:29:18;31.02;29.29;38.16;;
46746;Laerm;32493;50.514;9.678;2022-07-11T08:31:23;31.25;29.82;32.93;;
46746;Laerm;32493;50.514;9.678;2022-07-11T08:33:29;31.14;28.91;33.36;;
46746;Laerm;32493;50.514;9.678;2022-07-11T08:35:35;31.01;29.47;34.86;;
46746;Laerm;32493;50.514;9.678;2022-07-11T08:37:40;31.18;29.22;37.16;;
46746;Laerm;32493;50.514;9.678;2022-07-11T08:39:48;30.90;29.10;33.84;;
46746;Laerm;32493;50.514;9.678;2022-07-11T08:41:54;30.57;29.05;35.38;;
46746;Laerm;32493;50.514;9.678;2022-07-11T08:44:00;30.46;28.35;34.00;;
46746;Laerm;32493;50.514;9.678;2022-07-11T08:46:09;31.51;29.56;36.21;;
46746;Laerm;32493;50.514;9.678;2022-07-11T08:48:18;31.69;29.88;42.86;;
46746;Laerm;32493;50.514;9.678;2022-07-11T08:50:27;33.21;29.83;45.46;;
46746;Laerm;32493;50.514;9.678;2022-07-11T08:52:33;31.87;30.06;38.93;;
46746;Laerm;32493;50.514;9.678;2022-07-11T08:54:39;31.22;29.59;34.85;;
46746;Laerm;32493;50.514;9.678;2022-07-11T08:56:47;31.52;29.83;38.73;;
46746;Laerm;32493;50.514;9.678;2022-07-11T08:58:58;30.99;29.37;37.12;;
46746;Laerm;32493;50.514;9.678;2022-07-11T09:01:05;30.71;28.97;39.90;;
46746;Laerm;32493;50.514;9.678;2022-07-11T09:03:15;30.24;28.90;35.00;;
46746;Laerm;32493;50.514;9.678;2022-07-11T09:05:23;30.77;28.77;40.12;;
46746;Laerm;32493;50.514;9.678;2022-07-11T09:07:42;31.10;28.90;41.39;;
46746;Laerm;32493;50.514;9.678;2022-07-11T09:09:53;30.60;28.95;35.00;;
46746;Laerm;32493;50.514;9.678;2022-07-11T09:12:10;30.70;28.80;35.60;;
46746;Laerm;32493;50.514;9.678;2022-07-11T09:14:24;30.41;29.17;32.30;;
46746;Laerm;32493;50.514;9.678;2022-07-11T09:16:32;30.41;29.04;31.74;;
46746;Laerm;32493;50.514;9.678;2022-07-11T09:18:43;30.67;29.02;32.81;;
46746;Laerm;32493;50.514;9.678;2022-07-11T09:20:53;31.06;29.41;33.31;;
46746;Laerm;32493;50.514;9.678;2022-07-11T09:23:20;31.45;29.96;33.54;;
46746;Laerm;32493;50.514;9.678;2022-07-11T09:25:42;31.78;30.04;35.90;;
46746;Laerm;32493;50.514;9.678;2022-07-11T09:27:58;32.22;30.35;36.24;;
46746;Laerm;32493;50.514;9.678;2022-07-11T09:30:24;32.45;30.97;35.14;;
46746;Laerm;32493;50.514;9.678;2022-07-11T09:32:43;32.46;31.09;34.78;;
46746;Laerm;32493;50.514;9.678;2022-07-11T09:35:01;32.41;30.78;34.66;;
46746;Laerm;32493;50.514;9.678;2022-07-11T09:37:07;34.45;30.86;42.72;;
46746;Laerm;32493;50.514;9.678;2022-07-11T09:39:15;33.55;30.40;43.86;;
46746;Laerm;32493;50.514;9.678;2022-07-11T09:41:26;31.95;30.24;34.22;;
46746;Laerm;32493;50.514;9.678;2022-07-11T09:43:34;31.85;30.26;34.17;;
46746;Laerm;32493;50.514;9.678;2022-07-11T09:45:43;31.81;30.22;33.68;;
46746;Laerm;32493;50.514;9.678;2022-07-11T09:47:50;31.83;30.36;34.37;;
46746;Laerm;32493;50.514;9.678;2022-07-11T09:49:56;31.60;29.96;33.89;;
46746;Laerm;32493;50.514;9.678;2022-07-11T09:52:09;30.95;29.39;33.04;;
46746;Laerm;32493;50.514;9.678;2022-07-11T09:54:15;30.47;29.03;32.17;;
46746;Laerm;32493;50.514;9.678;2022-07-11T09:56:24;30.94;29.02;33.11;;
46746;Laerm;32493;50.514;9.678;2022-07-11T09:58:58;30.76;29.10;32.22;;
46746;Laerm;32493;50.514;9.678;2022-07-11T10:01:07;30.82;29.36;32.52;;
46746;Laerm;32493;50.514;9.678;2022-07-11T10:03:13;30.49;29.00;31.69;;
46746;Laerm;32493;50.514;9.678;2022-07-11T10:05:39;30.61;29.08;31.98;;
46746;Laerm;32493;50.514;9.678;2022-07-11T10:07:45;30.85;29.36;32.23;;
46746;Laerm;32493;50.514;9.678;2022-07-11T10:09:51;30.69;29.36;32.22;;
46746;Laerm;32493;50.514;9.678;2022-07-11T10:11:57;30.18;28.49;33.12;;
46746;Laerm;32493;50.514;9.678;2022-07-11T10:14:06;29.81;28.41;31.36;;
46746;Laerm;32493;50.514;9.678;2022-07-11T10:16:25;29.75;28.28;31.22;;
46746;Laerm;32493;50.514;9.678;2022-07-11T10:18:40;29.83;28.46;31.33;;
46746;Laerm;32493;50.514;9.678;2022-07-11T10:20:53;29.76;28.28;31.45;;
46746;Laerm;32493;50.514;9.678;2022-07-11T10:23:11;29.50;28.13;31.40;;
46746;Laerm;32493;50.514;9.678;2022-07-11T10:25:28;29.59;28.27;31.70;;
46746;Laerm;32493;50.514;9.678;2022-07-11T10:27:55;29.70;28.18;31.22;;
46746;Laerm;32493;50.514;9.678;2022-07-11T10:30:11;29.67;28.38;31.94;;
46746;Laerm;32493;50.514;9.678;2022-07-11T10:32:18;29.60;28.38;31.03;;
46746;Laerm;32493;50.514;9.678;2022-07-11T10:34:27;29.73;28.06;31.19;;
46746;Laerm;32493;50.514;9.678;2022-07-11T10:36:39;29.98;28.47;31.40;;
46746;Laerm;32493;50.514;9.678;2022-07-11T10:39:18;29.80;28.12;31.10;;
46746;Laerm;32493;50.514;9.678;2022-07-11T10:41:26;29.97;28.42;32.04;;
46746;Laerm;32493;50.514;9.678;2022-07-11T10:43:37;30.04;28.76;31.33;;
46746;Laerm;32493;50.514;9.678;2022-07-11T10:45:58;29.90;28.44;31.42;;
46746;Laerm;32493;50.514;9.678;2022-07-11T10:48:11;29.85;28.41;31.19;;
46746;Laerm;32493;50.514;9.678;2022-07-11T10:50:32;29.63;28.11;30.89;;
46746;Laerm;32493;50.514;9.678;2022-07-11T10:52:40;29.37;27.96;30.70;;
46746;Laerm;32493;50.514;9.678;2022-07-11T10:55:03;29.34;27.86;30.83;;
46746;Laerm;32493;50.514;9.678;2022-07-11T10:57:17;29.53;28.07;30.96;;
46746;Laerm;32493;50.514;9.678;2022-07-11T10:59:24;30.03;28.59;31.45;;
46746;Laerm;32493;50.514;9.678;2022-07-11T11:01:32;30.02;28.37;31.31;;
46746;Laerm;32493;50.514;9.678;2022-07-11T11:03:38;30.20;28.81;31.58;;
46746;Laerm;32493;50.514;9.678;2022-07-11T11:05:49;30.81;29.25;32.06;;
46746;Laerm;32493;50.514;9.678;2022-07-11T11:07:55;31.04;29.48;34.39;;
46746;Laerm;32493;50.514;9.678;2022-07-11T11:10:04;31.37;29.59;33.54;;
46746;Laerm;32493;50.514;9.678;2022-07-11T11:12:09;31.64;30.04;33.11;;
46746;Laerm;32493;50.514;9.678;2022-07-11T11:14:33;32.09;30.50;33.76;;
46746;Laerm;32493;50.514;9.678;2022-07-11T11:16:41;32.30;30.71;33.71;;
46746;Laerm;32493;50.514;9.678;2022-07-11T11:18:46;32.79;31.13;37.23;;
46746;Laerm;32493;50.514;9.678;2022-07-11T11:21:18;33.86;31.43;38.20;;
46746;Laerm;32493;50.514;9.678;2022-07-11T11:23:25;33.26;31.09;36.26;;
46746;Laerm;32493;50.514;9.678;2022-07-11T11:25:32;33.20;31.68;34.85;;
46746;Laerm;32493;50.514;9.678;2022-07-11T11:27:38;33.36;31.62;36.16;;
46746;Laerm;32493;50.514;9.678;2022-07-11T11:30:06;33.29;31.60;35.46;;
46746;Laerm;32493;50.514;9.678;2022-07-11T11:32:14;33.13;31.68;34.87;;
46746;Laerm;32493;50.514;9.678;2022-07-11T11:34:19;32.76;31.34;34.26;;
46746;Laerm;32493;50.514;9.678;2022-07-11T11:36:26;32.61;30.89;34.39;;
46746;Laerm;32493;50.514;9.678;2022-07-11T11:38:35;31.84;30.22;33.52;;
46746;Laerm;32493;50.514;9.678;2022-07-11T11:40:48;31.08;29.56;32.99;;
46746;Laerm;32493;50.514;9.678;2022-07-11T11:42:53;30.67;29.24;31.93;;
46746;Laerm;32493;50.514;9.678;2022-07-11T11:45:02;30.33;29.07;31.83;;
46746;Laerm;32493;50.514;9.678;2022-07-11T11:47:12;29.88;28.43;31.19;;
46746;Laerm;32493;50.514;9.678;2022-07-11T11:49:18;29.79;28.36;31.13;;
46746;Laerm;32493;50.514;9.678;2022-07-11T11:51:24;29.81;28.54;31.32;;
46746;Laerm;32493;50.514;9.678;2022-07-11T11:53:35;29.86;28.15;31.42;;
46746;Laerm;32493;50.514;9.678;2022-07-11T11:55:42;30.30;28.82;35.99;;